Terminal Aerodrome Forecast
Issued by NWS Charleston, WV

Current Version | Previous Version | Text Only | Print | Product List | Glossary Off
Versions: 1 2 3 4 5 6 7 8 9 10 11 12 13 14 15 16 17 18 19 20 21 22 23 24 25 26 27 28 29

009
FTUS41 KRLX 261438 AAA
TAFEKN
TAF AMD
KEKN 261438Z 2615/2712 00000KT P6SM BKN025
     FM261600 00000KT P6SM BKN035
     FM261700 29005KT P6SM VCTS BKN040CB
     FM270100 00000KT P6SM VCSH BKN045
     FM270300 00000KT 6SM BR SCT060
     FM270500 00000KT 3SM BR BKN070=

USA.gov is the U.S. government's official web portal to all federal, state and local government web resources and services.